Story, Wyoming
Current Conditions -  °F | °C
As of 3:53 AM on Sunday 23 Nov 2014 (Local Time) from KSHR Reporting Station
Clear Clear  
Wind Chill: 21°   Ceiling: Unl
Heat Index: 32°   Visibility: 10mi
Dew Point: 18°   Wind: 16mph
Humidity: 56%   Direction: 310°NW
Pressure: 29.72"   Gusts: NA
Location:  44.57°N, 106.89°W
Report Text: KSHR 231053Z AUTO 31014KT 10SM CLR 00/M08 A2972 RMK AO2 SLP073 T00001078 TSNO
Loading
Personal Weather Stations






























Interactive Weather Map New forecast layout! Learn more

10-Day Weather Forecast

Advertisements
Track Severe Weather on mobile